sensor_id;sensor_type;location;lat;lon;timestamp;P1;durP1;ratioP1;P2;durP2;ratioP2
24030;SDS011;12240;51.142;22.486;2023-02-16T00:00:46;102.43;;;27.42;;
24030;SDS011;12240;51.142;22.486;2023-02-16T00:03:18;87.85;;;24.63;;
24030;SDS011;12240;51.142;22.486;2023-02-16T00:05:49;100.22;;;27.55;;
24030;SDS011;12240;51.142;22.486;2023-02-16T00:08:18;75.97;;;21.70;;
24030;SDS011;12240;51.142;22.486;2023-02-16T00:10:46;90.68;;;25.38;;
24030;SDS011;12240;51.142;22.486;2023-02-16T00:13:34;72.57;;;22.17;;
24030;SDS011;12240;51.142;22.486;2023-02-16T00:16:16;73.67;;;20.30;;
24030;SDS011;12240;51.142;22.486;2023-02-16T00:18:48;81.90;;;22.08;;
24030;SDS011;12240;51.142;22.486;2023-02-16T00:21:18;71.43;;;20.52;;
24030;SDS011;12240;51.142;22.486;2023-02-16T00:23:46;103.25;;;30.60;;
24030;SDS011;12240;51.142;22.486;2023-02-16T00:26:19;76.47;;;21.63;;
24030;SDS011;12240;51.142;22.486;2023-02-16T00:28:51;93.97;;;26.98;;
24030;SDS011;12240;51.142;22.486;2023-02-16T00:31:25;76.05;;;23.73;;
24030;SDS011;12240;51.142;22.486;2023-02-16T00:33:58;80.68;;;21.50;;
24030;SDS011;12240;51.142;22.486;2023-02-16T00:36:53;66.57;;;19.95;;
24030;SDS011;12240;51.142;22.486;2023-02-16T00:39:22;64.18;;;18.00;;
24030;SDS011;12240;51.142;22.486;2023-02-16T00:41:53;68.55;;;18.92;;
24030;SDS011;12240;51.142;22.486;2023-02-16T00:45:02;61.35;;;18.38;;
24030;SDS011;12240;51.142;22.486;2023-02-16T00:47:34;61.70;;;17.63;;
24030;SDS011;12240;51.142;22.486;2023-02-16T00:50:27;56.65;;;17.90;;
24030;SDS011;12240;51.142;22.486;2023-02-16T00:52:59;56.03;;;16.88;;
24030;SDS011;12240;51.142;22.486;2023-02-16T00:55:30;61.17;;;17.38;;
24030;SDS011;12240;51.142;22.486;2023-02-16T01:00:41;61.55;;;16.52;;
24030;SDS011;12240;51.142;22.486;2023-02-16T01:03:28;54.03;;;16.33;;
24030;SDS011;12240;51.142;22.486;2023-02-16T01:05:56;63.90;;;18.38;;
24030;SDS011;12240;51.142;22.486;2023-02-16T01:08:43;68.65;;;18.15;;
24030;SDS011;12240;51.142;22.486;2023-02-16T01:11:32;60.92;;;17.75;;
24030;SDS011;12240;51.142;22.486;2023-02-16T01:14:01;64.80;;;18.15;;
24030;SDS011;12240;51.142;22.486;2023-02-16T01:16:35;72.88;;;18.98;;
24030;SDS011;12240;51.142;22.486;2023-02-16T01:19:08;61.97;;;17.17;;
24030;SDS011;12240;51.142;22.486;2023-02-16T01:21:40;72.55;;;18.98;;
24030;SDS011;12240;51.142;22.486;2023-02-16T01:24:08;55.85;;;16.27;;
24030;SDS011;12240;51.142;22.486;2023-02-16T01:26:37;67.80;;;18.48;;
24030;SDS011;12240;51.142;22.486;2023-02-16T01:29:15;63.45;;;18.45;;
24030;SDS011;12240;51.142;22.486;2023-02-16T01:31:48;68.00;;;19.48;;
24030;SDS011;12240;51.142;22.486;2023-02-16T01:34:17;59.60;;;16.95;;
24030;SDS011;12240;51.142;22.486;2023-02-16T01:36:45;82.30;;;20.98;;
24030;SDS011;12240;51.142;22.486;2023-02-16T01:39:16;70.25;;;18.92;;
24030;SDS011;12240;51.142;22.486;2023-02-16T01:41:58;74.82;;;19.40;;
24030;SDS011;12240;51.142;22.486;2023-02-16T01:44:43;79.00;;;20.15;;
24030;SDS011;12240;51.142;22.486;2023-02-16T01:47:33;67.05;;;18.40;;
24030;SDS011;12240;51.142;22.486;2023-02-16T01:50:15;59.42;;;18.52;;
24030;SDS011;12240;51.142;22.486;2023-02-16T01:55:36;75.18;;;19.60;;
24030;SDS011;12240;51.142;22.486;2023-02-16T01:58:15;63.33;;;19.42;;
24030;SDS011;12240;51.142;22.486;2023-02-16T02:07:44;78.72;;;19.70;;
24030;SDS011;12240;51.142;22.486;2023-02-16T02:13:20;75.20;;;20.42;;
24030;SDS011;12240;51.142;22.486;2023-02-16T02:15:58;81.65;;;20.45;;
24030;SDS011;12240;51.142;22.486;2023-02-16T02:18:27;82.93;;;20.77;;
24030;SDS011;12240;51.142;22.486;2023-02-16T02:21:13;76.78;;;18.52;;
24030;SDS011;12240;51.142;22.486;2023-02-16T02:27:30;79.20;;;20.10;;
24030;SDS011;12240;51.142;22.486;2023-02-16T02:47:13;81.70;;;21.83;;
24030;SDS011;12240;51.142;22.486;2023-02-16T02:49:48;85.85;;;22.67;;
24030;SDS011;12240;51.142;22.486;2023-02-16T02:52:18;74.40;;;21.65;;
24030;SDS011;12240;51.142;22.486;2023-02-16T02:54:48;88.72;;;22.65;;
24030;SDS011;12240;51.142;22.486;2023-02-16T02:57:43;71.78;;;20.23;;
24030;SDS011;12240;51.142;22.486;2023-02-16T03:00:38;76.10;;;21.80;;
24030;SDS011;12240;51.142;22.486;2023-02-16T03:06:08;79.55;;;21.98;;
24030;SDS011;12240;51.142;22.486;2023-02-16T03:08:39;75.80;;;22.27;;
24030;SDS011;12240;51.142;22.486;2023-02-16T03:11:18;87.28;;;23.75;;
24030;SDS011;12240;51.142;22.486;2023-02-16T03:14:10;84.55;;;22.52;;
24030;SDS011;12240;51.142;22.486;2023-02-16T03:16:59;86.10;;;23.40;;
24030;SDS011;12240;51.142;22.486;2023-02-16T03:19:57;79.22;;;22.13;;
24030;SDS011;12240;51.142;22.486;2023-02-16T03:22:47;91.68;;;24.15;;
24030;SDS011;12240;51.142;22.486;2023-02-16T03:25:36;74.53;;;21.48;;
24030;SDS011;12240;51.142;22.486;2023-02-16T03:28:25;80.55;;;22.10;;
24030;SDS011;12240;51.142;22.486;2023-02-16T03:31:17;87.63;;;23.88;;
24030;SDS011;12240;51.142;22.486;2023-02-16T03:33:51;98.95;;;24.13;;
24030;SDS011;12240;51.142;22.486;2023-02-16T03:36:21;84.07;;;23.30;;
24030;SDS011;12240;51.142;22.486;2023-02-16T03:38:52;88.75;;;22.10;;
24030;SDS011;12240;51.142;22.486;2023-02-16T03:41:23;88.03;;;23.08;;
24030;SDS011;12240;51.142;22.486;2023-02-16T03:43:52;83.47;;;23.60;;
24030;SDS011;12240;51.142;22.486;2023-02-16T03:46:20;80.32;;;22.25;;
24030;SDS011;12240;51.142;22.486;2023-02-16T03:48:48;91.28;;;24.63;;
24030;SDS011;12240;51.142;22.486;2023-02-16T03:51:16;81.25;;;22.83;;
24030;SDS011;12240;51.142;22.486;2023-02-16T03:53:44;94.57;;;24.10;;
24030;SDS011;12240;51.142;22.486;2023-02-16T03:56:12;78.57;;;23.23;;
24030;SDS011;12240;51.142;22.486;2023-02-16T03:58:41;87.13;;;23.70;;
24030;SDS011;12240;51.142;22.486;2023-02-16T04:01:09;74.35;;;21.88;;
24030;SDS011;12240;51.142;22.486;2023-02-16T04:03:37;80.90;;;23.17;;
24030;SDS011;12240;51.142;22.486;2023-02-16T04:06:05;80.88;;;22.58;;
24030;SDS011;12240;51.142;22.486;2023-02-16T04:08:34;73.28;;;21.55;;
24030;SDS011;12240;51.142;22.486;2023-02-16T04:11:02;75.10;;;22.52;;
24030;SDS011;12240;51.142;22.486;2023-02-16T04:13:50;91.35;;;24.15;;
24030;SDS011;12240;51.142;22.486;2023-02-16T04:16:18;74.28;;;22.92;;
24030;SDS011;12240;51.142;22.486;2023-02-16T04:18:46;87.93;;;23.63;;
24030;SDS011;12240;51.142;22.486;2023-02-16T04:21:14;73.03;;;21.73;;
24030;SDS011;12240;51.142;22.486;2023-02-16T04:23:42;83.18;;;21.80;;
24030;SDS011;12240;51.142;22.486;2023-02-16T04:26:10;77.03;;;22.02;;
24030;SDS011;12240;51.142;22.486;2023-02-16T04:28:38;82.97;;;23.23;;
24030;SDS011;12240;51.142;22.486;2023-02-16T04:31:07;77.55;;;22.27;;
24030;SDS011;12240;51.142;22.486;2023-02-16T04:33:35;75.50;;;21.60;;
24030;SDS011;12240;51.142;22.486;2023-02-16T04:36:03;73.97;;;21.88;;
24030;SDS011;12240;51.142;22.486;2023-02-16T04:38:32;74.50;;;21.15;;
24030;SDS011;12240;51.142;22.486;2023-02-16T04:41:00;76.00;;;22.08;;
24030;SDS011;12240;51.142;22.486;2023-02-16T04:43:28;76.57;;;22.83;;
24030;SDS011;12240;51.142;22.486;2023-02-16T04:45:56;78.32;;;22.13;;
24030;SDS011;12240;51.142;22.486;2023-02-16T04:48:25;75.18;;;21.75;;
24030;SDS011;12240;51.142;22.486;2023-02-16T04:50:53;83.68;;;23.73;;
24030;SDS011;12240;51.142;22.486;2023-02-16T04:53:21;76.03;;;22.27;;
24030;SDS011;12240;51.142;22.486;2023-02-16T04:55:49;79.68;;;22.35;;
24030;SDS011;12240;51.142;22.486;2023-02-16T04:58:17;71.63;;;21.90;;
24030;SDS011;12240;51.142;22.486;2023-02-16T05:00:45;86.88;;;23.55;;
24030;SDS011;12240;51.142;22.486;2023-02-16T05:03:13;84.13;;;23.58;;
24030;SDS011;12240;51.142;22.486;2023-02-16T05:05:41;84.55;;;24.27;;
24030;SDS011;12240;51.142;22.486;2023-02-16T05:08:09;77.90;;;23.00;;
24030;SDS011;12240;51.142;22.486;2023-02-16T05:10:38;68.32;;;20.30;;
24030;SDS011;12240;51.142;22.486;2023-02-16T05:13:06;70.68;;;21.55;;
24030;SDS011;12240;51.142;22.486;2023-02-16T05:15:55;77.78;;;21.70;;
24030;SDS011;12240;51.142;22.486;2023-02-16T05:18:23;76.95;;;20.67;;
24030;SDS011;12240;51.142;22.486;2023-02-16T05:20:51;71.95;;;20.13;;
24030;SDS011;12240;51.142;22.486;2023-02-16T05:23:38;78.78;;;23.13;;
24030;SDS011;12240;51.142;22.486;2023-02-16T05:26:07;81.78;;;22.75;;
24030;SDS011;12240;51.142;22.486;2023-02-16T05:28:35;76.07;;;21.42;;
24030;SDS011;12240;51.142;22.486;2023-02-16T05:31:03;78.03;;;22.35;;
24030;SDS011;12240;51.142;22.486;2023-02-16T05:33:32;81.82;;;23.48;;
24030;SDS011;12240;51.142;22.486;2023-02-16T05:36:00;95.00;;;25.00;;
24030;SDS011;12240;51.142;22.486;2023-02-16T05:38:28;81.50;;;22.85;;
24030;SDS011;12240;51.142;22.486;2023-02-16T05:41:00;78.05;;;22.15;;
24030;SDS011;12240;51.142;22.486;2023-02-16T05:43:29;70.47;;;21.17;;
24030;SDS011;12240;51.142;22.486;2023-02-16T05:45:57;76.80;;;22.65;;
24030;SDS011;12240;51.142;22.486;2023-02-16T05:48:25;79.05;;;22.77;;
24030;SDS011;12240;51.142;22.486;2023-02-16T05:50:53;83.15;;;24.23;;
24030;SDS011;12240;51.142;22.486;2023-02-16T05:53:21;79.47;;;22.92;;
24030;SDS011;12240;51.142;22.486;2023-02-16T05:55:49;86.25;;;23.75;;
24030;SDS011;12240;51.142;22.486;2023-02-16T05:58:17;72.80;;;21.65;;
24030;SDS011;12240;51.142;22.486;2023-02-16T06:00:46;86.28;;;24.48;;
24030;SDS011;12240;51.142;22.486;2023-02-16T06:03:14;72.72;;;21.85;;
24030;SDS011;12240;51.142;22.486;2023-02-16T06:05:42;80.95;;;23.55;;
24030;SDS011;12240;51.142;22.486;2023-02-16T06:08:10;71.45;;;21.20;;
24030;SDS011;12240;51.142;22.486;2023-02-16T06:10:39;74.53;;;21.02;;
24030;SDS011;12240;51.142;22.486;2023-02-16T06:13:07;70.03;;;22.20;;
24030;SDS011;12240;51.142;22.486;2023-02-16T06:15:35;82.35;;;22.83;;
24030;SDS011;12240;51.142;22.486;2023-02-16T06:18:04;63.08;;;19.60;;
24030;SDS011;12240;51.142;22.486;2023-02-16T06:20:33;73.03;;;22.55;;
24030;SDS011;12240;51.142;22.486;2023-02-16T06:23:01;63.63;;;20.88;;
24030;SDS011;12240;51.142;22.486;2023-02-16T06:25:29;69.28;;;22.33;;
24030;SDS011;12240;51.142;22.486;2023-02-16T06:27:58;64.50;;;19.17;;
24030;SDS011;12240;51.142;22.486;2023-02-16T06:30:26;84.25;;;22.88;;
24030;SDS011;12240;51.142;22.486;2023-02-16T06:32:55;86.18;;;24.02;;
24030;SDS011;12240;51.142;22.486;2023-02-16T06:35:23;74.20;;;21.45;;
24030;SDS011;12240;51.142;22.486;2023-02-16T06:37:52;82.65;;;23.92;;
24030;SDS011;12240;51.142;22.486;2023-02-16T06:40:20;72.47;;;21.63;;
24030;SDS011;12240;51.142;22.486;2023-02-16T06:42:49;88.32;;;25.67;;
24030;SDS011;12240;51.142;22.486;2023-02-16T06:45:17;75.50;;;24.17;;
24030;SDS011;12240;51.142;22.486;2023-02-16T06:47:46;72.03;;;22.25;;
24030;SDS011;12240;51.142;22.486;2023-02-16T06:50:14;76.28;;;23.30;;
24030;SDS011;12240;51.142;22.486;2023-02-16T06:52:43;75.53;;;24.27;;
24030;SDS011;12240;51.142;22.486;2023-02-16T06:55:11;70.78;;;22.55;;
24030;SDS011;12240;51.142;22.486;2023-02-16T06:57:39;79.40;;;23.90;;
24030;SDS011;12240;51.142;22.486;2023-02-16T07:00:08;85.63;;;25.83;;
24030;SDS011;12240;51.142;22.486;2023-02-16T07:02:37;71.15;;;24.00;;
24030;SDS011;12240;51.142;22.486;2023-02-16T07:05:05;74.18;;;24.25;;
24030;SDS011;12240;51.142;22.486;2023-02-16T07:07:34;71.97;;;24.50;;
24030;SDS011;12240;51.142;22.486;2023-02-16T07:10:03;70.82;;;23.75;;
24030;SDS011;12240;51.142;22.486;2023-02-16T07:12:31;73.25;;;24.08;;
24030;SDS011;12240;51.142;22.486;2023-02-16T07:14:59;77.45;;;25.30;;
24030;SDS011;12240;51.142;22.486;2023-02-16T07:17:28;74.57;;;24.27;;
24030;SDS011;12240;51.142;22.486;2023-02-16T07:19:57;76.05;;;26.13;;
24030;SDS011;12240;51.142;22.486;2023-02-16T07:22:26;66.47;;;22.35;;
24030;SDS011;12240;51.142;22.486;2023-02-16T07:24:55;69.80;;;24.33;;
24030;SDS011;12240;51.142;22.486;2023-02-16T07:27:25;79.50;;;25.08;;
24030;SDS011;12240;51.142;22.486;2023-02-16T07:29:54;85.38;;;27.17;;
24030;SDS011;12240;51.142;22.486;2023-02-16T07:32:22;69.97;;;25.52;;
24030;SDS011;12240;51.142;22.486;2023-02-16T07:34:50;81.60;;;27.50;;
24030;SDS011;12240;51.142;22.486;2023-02-16T07:37:18;79.40;;;25.48;;
24030;SDS011;12240;51.142;22.486;2023-02-16T07:39:47;77.78;;;25.63;;
24030;SDS011;12240;51.142;22.486;2023-02-16T07:42:15;73.47;;;26.45;;
24030;SDS011;12240;51.142;22.486;2023-02-16T07:44:46;74.78;;;26.83;;
24030;SDS011;12240;51.142;22.486;2023-02-16T07:47:14;71.38;;;23.65;;
24030;SDS011;12240;51.142;22.486;2023-02-16T07:49:43;71.97;;;25.58;;
24030;SDS011;12240;51.142;22.486;2023-02-16T07:52:11;79.15;;;26.90;;
24030;SDS011;12240;51.142;22.486;2023-02-16T07:54:39;78.22;;;27.35;;
24030;SDS011;12240;51.142;22.486;2023-02-16T07:57:08;78.65;;;26.80;;
24030;SDS011;12240;51.142;22.486;2023-02-16T07:59:36;65.60;;;24.27;;
24030;SDS011;12240;51.142;22.486;2023-02-16T08:02:04;72.80;;;25.52;;
24030;SDS011;12240;51.142;22.486;2023-02-16T08:04:33;74.68;;;27.05;;
24030;SDS011;12240;51.142;22.486;2023-02-16T08:07:02;91.20;;;32.08;;
24030;SDS011;12240;51.142;22.486;2023-02-16T08:09:30;75.65;;;27.85;;
24030;SDS011;12240;51.142;22.486;2023-02-16T08:11:59;86.07;;;28.52;;
24030;SDS011;12240;51.142;22.486;2023-02-16T08:14:27;84.20;;;28.83;;
24030;SDS011;12240;51.142;22.486;2023-02-16T08:16:56;78.13;;;27.25;;
24030;SDS011;12240;51.142;22.486;2023-02-16T08:19:24;82.78;;;27.08;;
24030;SDS011;12240;51.142;22.486;2023-02-16T08:21:53;91.65;;;29.48;;
24030;SDS011;12240;51.142;22.486;2023-02-16T08:24:22;83.63;;;27.90;;
24030;SDS011;12240;51.142;22.486;2023-02-16T08:26:51;87.57;;;31.13;;
24030;SDS011;12240;51.142;22.486;2023-02-16T08:29:20;79.18;;;27.17;;
24030;SDS011;12240;51.142;22.486;2023-02-16T08:31:49;91.55;;;28.95;;
24030;SDS011;12240;51.142;22.486;2023-02-16T08:34:19;79.75;;;27.17;;
24030;SDS011;12240;51.142;22.486;2023-02-16T08:36:51;84.25;;;28.55;;
24030;SDS011;12240;51.142;22.486;2023-02-16T08:39:24;88.60;;;28.70;;
24030;SDS011;12240;51.142;22.486;2023-02-16T08:41:54;75.38;;;23.83;;
24030;SDS011;12240;51.142;22.486;2023-02-16T08:44:24;85.47;;;29.67;;
24030;SDS011;12240;51.142;22.486;2023-02-16T08:46:54;99.55;;;32.08;;
24030;SDS011;12240;51.142;22.486;2023-02-16T08:49:26;90.18;;;28.73;;
24030;SDS011;12240;51.142;22.486;2023-02-16T08:51:55;95.38;;;31.15;;
24030;SDS011;12240;51.142;22.486;2023-02-16T08:54:26;90.10;;;29.73;;
24030;SDS011;12240;51.142;22.486;2023-02-16T08:56:58;84.80;;;29.35;;
24030;SDS011;12240;51.142;22.486;2023-02-16T08:59:29;86.45;;;29.63;;
24030;SDS011;12240;51.142;22.486;2023-02-16T09:01:58;85.40;;;30.00;;
24030;SDS011;12240;51.142;22.486;2023-02-16T09:04:27;76.90;;;28.10;;
24030;SDS011;12240;51.142;22.486;2023-02-16T09:06:56;85.53;;;31.75;;
24030;SDS011;12240;51.142;22.486;2023-02-16T09:09:26;81.45;;;30.00;;
24030;SDS011;12240;51.142;22.486;2023-02-16T09:11:54;90.07;;;30.42;;
24030;SDS011;12240;51.142;22.486;2023-02-16T09:14:24;83.80;;;29.77;;
24030;SDS011;12240;51.142;22.486;2023-02-16T09:16:52;83.75;;;29.30;;
24030;SDS011;12240;51.142;22.486;2023-02-16T09:19:20;91.95;;;33.20;;
24030;SDS011;12240;51.142;22.486;2023-02-16T09:21:49;90.68;;;30.95;;
24030;SDS011;12240;51.142;22.486;2023-02-16T09:24:18;75.38;;;28.10;;
24030;SDS011;12240;51.142;22.486;2023-02-16T09:26:46;87.10;;;31.15;;
24030;SDS011;12240;51.142;22.486;2023-02-16T09:29:15;79.43;;;29.25;;
24030;SDS011;12240;51.142;22.486;2023-02-16T09:31:44;74.72;;;27.35;;
24030;SDS011;12240;51.142;22.486;2023-02-16T09:34:16;82.53;;;29.90;;
24030;SDS011;12240;51.142;22.486;2023-02-16T09:36:49;83.93;;;31.33;;
24030;SDS011;12240;51.142;22.486;2023-02-16T09:39:18;91.07;;;32.28;;
24030;SDS011;12240;51.142;22.486;2023-02-16T09:42:00;95.95;;;33.45;;
24030;SDS011;12240;51.142;22.486;2023-02-16T09:47:42;89.68;;;29.92;;
24030;SDS011;12240;51.142;22.486;2023-02-16T09:50:15;79.97;;;28.67;;
24030;SDS011;12240;51.142;22.486;2023-02-16T09:53:14;92.10;;;30.33;;
24030;SDS011;12240;51.142;22.486;2023-02-16T09:56:07;94.93;;;30.00;;
24030;SDS011;12240;51.142;22.486;2023-02-16T09:59:12;101.38;;;31.98;;
24030;SDS011;12240;51.142;22.486;2023-02-16T10:07:44;82.40;;;27.55;;
24030;SDS011;12240;51.142;22.486;2023-02-16T10:10:18;94.72;;;30.65;;
24030;SDS011;12240;51.142;22.486;2023-02-16T10:12:53;93.50;;;30.50;;
24030;SDS011;12240;51.142;22.486;2023-02-16T10:15:31;92.00;;;30.85;;
24030;SDS011;12240;51.142;22.486;2023-02-16T10:18:03;96.95;;;33.08;;
24030;SDS011;12240;51.142;22.486;2023-02-16T10:20:57;90.82;;;30.60;;
24030;SDS011;12240;51.142;22.486;2023-02-16T10:23:39;93.20;;;32.45;;
24030;SDS011;12240;51.142;22.486;2023-02-16T10:26:21;91.47;;;30.67;;
24030;SDS011;12240;51.142;22.486;2023-02-16T10:29:05;94.65;;;30.90;;
24030;SDS011;12240;51.142;22.486;2023-02-16T10:46:24;94.90;;;32.47;;
24030;SDS011;12240;51.142;22.486;2023-02-16T10:48:58;104.60;;;32.58;;
24030;SDS011;12240;51.142;22.486;2023-02-16T10:51:32;99.93;;;32.03;;
24030;SDS011;12240;51.142;22.486;2023-02-16T10:54:07;90.20;;;26.75;;
24030;SDS011;12240;51.142;22.486;2023-02-16T10:59:43;95.88;;;31.45;;
24030;SDS011;12240;51.142;22.486;2023-02-16T11:04:54;105.15;;;31.85;;
24030;SDS011;12240;51.142;22.486;2023-02-16T11:07:26;103.30;;;31.35;;
24030;SDS011;12240;51.142;22.486;2023-02-16T11:09:58;100.30;;;29.30;;
24030;SDS011;12240;51.142;22.486;2023-02-16T11:12:44;108.30;;;30.75;;
24030;SDS011;12240;51.142;22.486;2023-02-16T11:20:32;79.60;;;26.10;;
24030;SDS011;12240;51.142;22.486;2023-02-16T11:23:31;97.60;;;29.83;;
24030;SDS011;12240;51.142;22.486;2023-02-16T11:28:45;109.15;;;29.88;;
24030;SDS011;12240;51.142;22.486;2023-02-16T11:31:27;87.25;;;27.98;;
24030;SDS011;12240;51.142;22.486;2023-02-16T11:39:47;91.68;;;29.10;;
24030;SDS011;12240;51.142;22.486;2023-02-16T11:42:57;86.40;;;27.75;;
24030;SDS011;12240;51.142;22.486;2023-02-16T11:45:21;91.28;;;27.75;;
24030;SDS011;12240;51.142;22.486;2023-02-16T11:48:03;89.20;;;28.05;;
24030;SDS011;12240;51.142;22.486;2023-02-16T11:50:59;102.00;;;31.52;;
24030;SDS011;12240;51.142;22.486;2023-02-16T12:05:07;89.07;;;26.40;;
24030;SDS011;12240;51.142;22.486;2023-02-16T12:10:21;76.50;;;25.77;;
24030;SDS011;12240;51.142;22.486;2023-02-16T12:16:05;83.03;;;27.73;;
24030;SDS011;12240;51.142;22.486;2023-02-16T12:21:48;77.63;;;23.55;;
24030;SDS011;12240;51.142;22.486;2023-02-16T12:28:10;76.60;;;23.52;;
24030;SDS011;12240;51.142;22.486;2023-02-16T12:31:15;85.97;;;25.13;;
24030;SDS011;12240;51.142;22.486;2023-02-16T12:39:30;77.57;;;25.35;;
24030;SDS011;12240;51.142;22.486;2023-02-16T12:42:21;80.38;;;26.88;;
24030;SDS011;12240;51.142;22.486;2023-02-16T12:45:15;83.35;;;27.60;;
24030;SDS011;12240;51.142;22.486;2023-02-16T12:47:51;90.78;;;26.95;;
24030;SDS011;12240;51.142;22.486;2023-02-16T12:50:27;71.50;;;24.83;;
24030;SDS011;12240;51.142;22.486;2023-02-16T12:55:45;76.28;;;24.42;;
24030;SDS011;12240;51.142;22.486;2023-02-16T12:58:27;65.72;;;24.17;;
24030;SDS011;12240;51.142;22.486;2023-02-16T13:01:07;87.47;;;28.02;;
24030;SDS011;12240;51.142;22.486;2023-02-16T13:06:51;86.68;;;27.17;;
24030;SDS011;12240;51.142;22.486;2023-02-16T13:12:40;80.57;;;26.45;;
24030;SDS011;12240;51.142;22.486;2023-02-16T13:15:33;74.47;;;26.15;;
24030;SDS011;12240;51.142;22.486;2023-02-16T13:18:35;71.72;;;26.50;;
24030;SDS011;12240;51.142;22.486;2023-02-16T13:21:11;86.25;;;28.55;;
24030;SDS011;12240;51.142;22.486;2023-02-16T13:23:51;90.47;;;27.88;;
24030;SDS011;12240;51.142;22.486;2023-02-16T13:36:00;82.95;;;26.65;;
24030;SDS011;12240;51.142;22.486;2023-02-16T13:44:57;72.22;;;25.65;;
24030;SDS011;12240;51.142;22.486;2023-02-16T13:47:29;78.85;;;26.35;;
24030;SDS011;12240;51.142;22.486;2023-02-16T13:50:04;73.32;;;25.83;;
24030;SDS011;12240;51.142;22.486;2023-02-16T13:52:51;88.68;;;27.85;;
24030;SDS011;12240;51.142;22.486;2023-02-16T13:55:30;70.97;;;25.75;;
24030;SDS011;12240;51.142;22.486;2023-02-16T14:00:42;75.75;;;26.90;;
24030;SDS011;12240;51.142;22.486;2023-02-16T14:05:51;75.15;;;25.63;;
24030;SDS011;12240;51.142;22.486;2023-02-16T14:08:24;72.80;;;25.67;;
24030;SDS011;12240;51.142;22.486;2023-02-16T14:10:56;80.85;;;27.33;;
24030;SDS011;12240;51.142;22.486;2023-02-16T14:16:08;83.22;;;26.45;;
24030;SDS011;12240;51.142;22.486;2023-02-16T14:18:48;87.75;;;28.02;;
24030;SDS011;12240;51.142;22.486;2023-02-16T14:21:44;81.53;;;27.30;;
24030;SDS011;12240;51.142;22.486;2023-02-16T14:26:59;79.20;;;26.73;;
24030;SDS011;12240;51.142;22.486;2023-02-16T14:32:24;78.68;;;26.30;;
24030;SDS011;12240;51.142;22.486;2023-02-16T14:43:30;80.38;;;25.58;;
24030;SDS011;12240;51.142;22.486;2023-02-16T14:49:26;78.72;;;26.50;;
24030;SDS011;12240;51.142;22.486;2023-02-16T14:55:59;80.22;;;26.80;;
24030;SDS011;12240;51.142;22.486;2023-02-16T15:01:51;77.80;;;25.05;;
24030;SDS011;12240;51.142;22.486;2023-02-16T15:04:30;71.05;;;24.65;;
24030;SDS011;12240;51.142;22.486;2023-02-16T15:07:02;80.82;;;25.92;;
24030;SDS011;12240;51.142;22.486;2023-02-16T15:09:32;78.45;;;25.35;;
24030;SDS011;12240;51.142;22.486;2023-02-16T15:12:06;78.97;;;25.50;;
24030;SDS011;12240;51.142;22.486;2023-02-16T15:23:00;76.85;;;24.52;;
24030;SDS011;12240;51.142;22.486;2023-02-16T15:25:34;69.35;;;23.35;;
24030;SDS011;12240;51.142;22.486;2023-02-16T15:30:40;71.13;;;23.30;;
24030;SDS011;12240;51.142;22.486;2023-02-16T15:38:27;72.45;;;25.15;;
24030;SDS011;12240;51.142;22.486;2023-02-16T15:41:03;76.57;;;26.30;;
24030;SDS011;12240;51.142;22.486;2023-02-16T15:43:35;80.05;;;26.55;;
24030;SDS011;12240;51.142;22.486;2023-02-16T15:46:27;83.93;;;27.05;;
24030;SDS011;12240;51.142;22.486;2023-02-16T15:49:21;99.40;;;31.10;;
24030;SDS011;12240;51.142;22.486;2023-02-16T15:51:54;98.88;;;30.38;;
24030;SDS011;12240;51.142;22.486;2023-02-16T15:54:27;92.43;;;30.67;;
24030;SDS011;12240;51.142;22.486;2023-02-16T16:02:48;91.20;;;28.40;;
24030;SDS011;12240;51.142;22.486;2023-02-16T16:05:21;82.00;;;27.38;;
24030;SDS011;12240;51.142;22.486;2023-02-16T16:07:59;77.15;;;27.50;;
24030;SDS011;12240;51.142;22.486;2023-02-16T16:10:33;83.05;;;29.60;;
24030;SDS011;12240;51.142;22.486;2023-02-16T16:13:12;127.15;;;39.63;;
24030;SDS011;12240;51.142;22.486;2023-02-16T16:15:47;126.47;;;40.63;;
24030;SDS011;12240;51.142;22.486;2023-02-16T16:18:37;127.38;;;38.58;;
24030;SDS011;12240;51.142;22.486;2023-02-16T16:21:20;109.90;;;34.83;;
24030;SDS011;12240;51.142;22.486;2023-02-16T16:24:04;133.27;;;40.20;;
24030;SDS011;12240;51.142;22.486;2023-02-16T16:26:53;146.55;;;44.20;;
24030;SDS011;12240;51.142;22.486;2023-02-16T16:30:07;134.85;;;40.88;;
24030;SDS011;12240;51.142;22.486;2023-02-16T16:32:19;113.72;;;37.72;;
24030;SDS011;12240;51.142;22.486;2023-02-16T16:34:55;114.95;;;35.58;;
24030;SDS011;12240;51.142;22.486;2023-02-16T16:37:25;103.85;;;35.83;;
24030;SDS011;12240;51.142;22.486;2023-02-16T16:48:15;100.57;;;32.42;;
24030;SDS011;12240;51.142;22.486;2023-02-16T16:51:08;103.07;;;31.70;;
24030;SDS011;12240;51.142;22.486;2023-02-16T16:53:38;98.05;;;32.38;;
24030;SDS011;12240;51.142;22.486;2023-02-16T16:56:39;98.85;;;31.67;;
24030;SDS011;12240;51.142;22.486;2023-02-16T16:59:08;99.13;;;31.13;;
24030;SDS011;12240;51.142;22.486;2023-02-16T17:01:37;94.88;;;31.67;;
24030;SDS011;12240;51.142;22.486;2023-02-16T17:04:05;96.72;;;32.58;;
24030;SDS011;12240;51.142;22.486;2023-02-16T17:06:33;88.45;;;31.08;;
24030;SDS011;12240;51.142;22.486;2023-02-16T17:09:01;92.78;;;30.83;;
24030;SDS011;12240;51.142;22.486;2023-02-16T17:11:31;86.50;;;29.80;;
24030;SDS011;12240;51.142;22.486;2023-02-16T17:16:47;87.55;;;28.83;;
24030;SDS011;12240;51.142;22.486;2023-02-16T17:19:19;85.45;;;27.35;;
24030;SDS011;12240;51.142;22.486;2023-02-16T17:21:49;87.22;;;27.77;;
24030;SDS011;12240;51.142;22.486;2023-02-16T17:24:17;95.32;;;30.13;;
24030;SDS011;12240;51.142;22.486;2023-02-16T17:26:46;87.07;;;29.48;;
24030;SDS011;12240;51.142;22.486;2023-02-16T17:29:16;86.40;;;28.30;;
24030;SDS011;12240;51.142;22.486;2023-02-16T17:31:44;91.43;;;29.50;;
24030;SDS011;12240;51.142;22.486;2023-02-16T17:34:14;85.57;;;29.83;;
24030;SDS011;12240;51.142;22.486;2023-02-16T17:36:43;101.47;;;32.35;;
24030;SDS011;12240;51.142;22.486;2023-02-16T17:39:13;93.93;;;31.02;;
24030;SDS011;12240;51.142;22.486;2023-02-16T17:41:41;96.28;;;31.55;;
24030;SDS011;12240;51.142;22.486;2023-02-16T17:44:09;98.78;;;30.13;;
24030;SDS011;12240;51.142;22.486;2023-02-16T17:46:37;108.85;;;32.08;;
24030;SDS011;12240;51.142;22.486;2023-02-16T17:49:08;96.63;;;31.52;;
24030;SDS011;12240;51.142;22.486;2023-02-16T17:51:38;106.85;;;32.53;;
24030;SDS011;12240;51.142;22.486;2023-02-16T17:54:07;108.07;;;32.92;;
24030;SDS011;12240;51.142;22.486;2023-02-16T17:56:36;110.97;;;34.15;;
24030;SDS011;12240;51.142;22.486;2023-02-16T17:59:09;109.10;;;33.95;;
24030;SDS011;12240;51.142;22.486;2023-02-16T18:01:42;113.88;;;34.17;;
24030;SDS011;12240;51.142;22.486;2023-02-16T18:04:11;109.85;;;32.00;;
24030;SDS011;12240;51.142;22.486;2023-02-16T18:06:39;112.05;;;33.08;;
24030;SDS011;12240;51.142;22.486;2023-02-16T18:09:08;107.55;;;33.53;;